Time;durP1;ratioP1;P1;durP2;ratioP2;P2;SDS_P1;SDS_P2;PMS_P1;PMS_P2;Temp;Humidity;BMP_temperature;BMP_pressure;BME280_temperature;BME280_humidity;BME280_pressure;Samples;Min_cycle;Max_cycle;Signal;HPM_P1;HPM_P2
2021/03/06 00:01:00;;;;;;;15.90;7.73;;;;;;;-4.67;76.08;100600.11;510524;1099;115472;-60
2021/03/06 00:11:06;;;;;;;10.15;6.47;;;;;;;-4.67;76.47;100596.70;510374;1099;114900;-60
2021/03/06 00:21:10;;;;;;;13.97;8.57;;;;;;;-4.64;76.83;100599.30;510944;1099;114603;-60
2021/03/06 00:31:23;;;;;;;13.77;8.83;;;;;;;-4.80;76.90;100600.77;510481;1099;114826;-60
2021/03/06 00:41:28;;;;;;;17.57;8.63;;;;;;;-4.83;77.11;100608.41;510601;1099;115065;-60
2021/03/06 00:51:32;;;;;;;16.17;8.47;;;;;;;-4.89;76.09;100606.63;510650;1099;114571;-59
2021/03/06 01:01:44;;;;;;;15.60;8.47;;;;;;;-5.04;76.16;100599.55;510445;1099;114514;-62
2021/03/06 01:11:48;;;;;;;14.83;8.67;;;;;;;-5.20;76.26;100608.67;510423;1099;114401;-63
2021/03/06 01:21:56;;;;;;;15.33;8.70;;;;;;;-5.29;77.37;100608.51;511457;1099;116088;-62
2021/03/06 01:32:15;;;;;;;17.90;8.63;;;;;;;-5.41;77.26;100621.97;510853;1099;114873;-61
2021/03/06 01:42:20;;;;;;;21.03;10.17;;;;;;;-5.57;77.66;100618.27;511657;1099;115438;-63
2021/03/06 01:52:25;;;;;;;17.63;10.03;;;;;;;-5.80;77.03;100616.13;512795;1099;115553;-63
2021/03/06 02:02:31;;;;;;;19.03;10.67;;;;;;;-6.00;77.49;100624.27;510575;1099;115522;-64
2021/03/06 02:12:48;;;;;;;15.57;9.87;;;;;;;-6.14;77.51;100618.89;510832;1099;115756;-64
2021/03/06 02:23:15;;;;;;;15.20;9.07;;;;;;;-6.23;77.94;100626.39;510851;1099;115969;-63
2021/03/06 02:33:20;;;;;;;17.70;10.55;;;;;;;-6.32;78.35;100631.30;510832;1099;115519;-64
2021/03/06 02:43:29;;;;;;;18.43;11.00;;;;;;;-6.44;78.61;100634.42;510563;1099;115589;-63
2021/03/06 02:53:34;;;;;;;15.37;8.73;;;;;;;-6.51;78.94;100646.20;510922;1100;116556;-64
2021/03/06 03:03:53;;;;;;;14.30;7.90;;;;;;;-6.61;79.00;100643.44;510868;1099;114879;-64
2021/03/06 03:13:58;;;;;;;17.30;10.47;;;;;;;-6.65;79.16;100656.10;510898;1099;116113;-64
2021/03/06 03:24:06;;;;;;;16.93;9.43;;;;;;;-6.74;79.68;100655.91;510199;1099;115122;-60
2021/03/06 03:34:12;;;;;;;16.93;8.10;;;;;;;-6.79;79.43;100664.30;510159;1098;115429;-64
2021/03/06 03:44:16;;;;;;;;;;;;;;;-6.85;79.52;100676.95;510628;1099;115572;-64
2021/03/06 03:54:20;;;;;;;17.50;9.50;;;;;;;-6.89;80.05;100685.33;510875;1099;100914;-64
2021/03/06 04:04:31;;;;;;;14.73;9.37;;;;;;;-6.96;79.76;100691.98;510584;1099;116231;-65
2021/03/06 04:14:35;;;;;;;15.83;8.70;;;;;;;-7.05;79.83;100699.40;510740;1100;114956;-64
2021/03/06 04:24:39;;;;;;;17.57;7.77;;;;;;;-7.12;80.10;100703.48;510749;1099;115335;-65
2021/03/06 04:34:46;;;;;;;24.43;13.10;;;;;;;-7.16;80.09;100711.90;510625;1099;116158;-65
2021/03/06 04:44:50;;;;;;;13.07;8.90;;;;;;;-7.20;80.25;100703.29;510798;1099;115608;-65
2021/03/06 04:54:54;;;;;;;14.73;10.20;;;;;;;-7.27;80.27;100710.75;510863;1099;116314;-65
2021/03/06 05:04:58;;;;;;;14.07;9.70;;;;;;;-7.30;80.21;100723.44;510811;1099;115629;-66
2021/03/06 05:15:03;;;;;;;17.32;10.80;;;;;;;-7.30;80.88;100718.33;510716;1102;114814;-64
2021/03/06 05:25:10;;;;;;;19.27;11.33;;;;;;;-7.20;80.73;100720.31;510756;1099;115002;-66
2021/03/06 05:35:14;;;;;;;21.90;10.80;;;;;;;-7.08;81.03;100730.84;510663;1099;115584;-63
2021/03/06 05:45:19;;;;;;;18.50;9.73;;;;;;;-6.84;80.94;100731.42;510881;1102;115639;-65
2021/03/06 05:55:28;;;;;;;20.07;13.90;;;;;;;-6.38;80.41;100736.83;510805;1099;115252;-65
2021/03/06 06:05:33;;;;;;;20.90;13.63;;;;;;;-5.07;81.72;100748.92;510613;1099;115776;-65
2021/03/06 06:15:36;;;;;;;25.00;14.27;;;;;;;0.72;78.82;100745.20;510831;1100;115273;-64
2021/03/06 06:25:41;;;;;;;27.67;17.13;;;;;;;6.46;71.72;100754.09;510696;1100;115824;-65
2021/03/06 06:35:55;;;;;;;20.57;16.90;;;;;;;11.04;65.15;100744.02;510760;1099;115629;-64
2021/03/06 06:45:59;;;;;;;19.57;13.60;;;;;;;14.10;59.26;100741.85;510673;1099;114666;-65
2021/03/06 06:56:21;;;;;;;14.83;12.67;;;;;;;16.77;54.25;100739.47;510792;1102;121722;-64
2021/03/06 07:06:26;;;;;;;17.47;13.70;;;;;;;18.01;50.88;100745.41;510667;1098;115529;-64
2021/03/06 07:16:56;;;;;;;19.60;13.85;;;;;;;19.54;47.14;100743.02;510905;1102;115115;-64
2021/03/06 07:27:01;;;;;;;16.12;12.50;;;;;;;22.69;44.86;100734.55;502106;1102;10001340;-65
2021/03/06 07:37:07;;;;;;;15.77;13.47;;;;;;;23.92;41.39;100747.38;510575;1099;115077;-62
2021/03/06 07:47:14;;;;;;;16.13;13.67;;;;;;;24.65;38.61;100740.88;510371;1101;114702;-61
2021/03/06 07:57:19;;;;;;;17.20;13.30;;;;;;;26.25;36.97;100742.45;510335;1102;115060;-67
2021/03/06 08:07:38;;;;;;;15.60;12.10;;;;;;;26.61;34.40;100736.56;510444;1099;115217;-66
2021/03/06 08:17:43;;;;;;;14.10;12.50;;;;;;;26.65;32.57;100743.26;510819;1099;114996;-66
2021/03/06 08:28:27;;;;;;;14.40;11.80;;;;;;;27.83;31.41;100751.20;510840;1099;115044;-67
2021/03/06 08:38:32;;;;;;;14.33;11.93;;;;;;;29.82;30.65;100742.18;510918;1099;114611;-67
2021/03/06 08:48:38;;;;;;;22.00;13.33;;;;;;;29.45;28.45;100755.03;511405;1099;115581;-66
2021/03/06 08:58:47;;;;;;;11.20;9.60;;;;;;;24.26;27.84;100751.11;511223;1099;114597;-67
2021/03/06 09:08:55;;;;;;;9.77;8.50;;;;;;;20.96;29.78;100750.48;510680;1100;114414;-67
2021/03/06 09:18:59;;;;;;;11.80;9.30;;;;;;;20.62;29.09;100752.59;511172;1099;114755;-68
2021/03/06 09:29:04;;;;;;;20.67;8.07;;;;;;;13.07;32.02;100760.91;502897;1099;10000941;-67
2021/03/06 09:39:09;;;;;;;11.70;7.07;;;;;;;10.24;35.41;100759.85;510642;1099;114991;-65
2021/03/06 09:49:14;;;;;;;11.33;7.57;;;;;;;7.93;37.33;100774.00;510414;1098;114505;-66
2021/03/06 09:59:23;;;;;;;8.83;5.77;;;;;;;6.46;39.54;100772.36;511161;1101;114190;-67
2021/03/06 10:09:33;;;;;;;8.80;6.20;;;;;;;5.81;40.68;100764.47;510711;1099;114367;-65
2021/03/06 10:19:48;;;;;;;13.10;7.45;;;;;;;4.63;42.78;100783.63;510199;1100;114355;-63
2021/03/06 10:30:12;;;;;;;10.23;6.13;;;;;;;4.08;44.15;100761.29;510192;1099;114310;-62
2021/03/06 10:40:16;;;;;;;10.77;5.70;;;;;;;3.51;45.39;100776.94;510748;1099;114313;-61
2021/03/06 10:50:30;;;;;;;12.70;6.10;;;;;;;3.95;45.75;100756.31;510385;1099;114537;-65
2021/03/06 11:00:35;;;;;;;8.17;5.40;;;;;;;4.03;44.76;100749.21;511358;1099;114149;-61
2021/03/06 11:10:42;;;;;;;8.40;5.10;;;;;;;4.37;44.82;100755.53;511587;1099;113858;-62
2021/03/06 11:20:47;;;;;;;11.73;5.73;;;;;;;4.65;44.64;100726.34;510680;1099;113960;-64
2021/03/06 11:30:53;;;;;;;8.70;4.37;;;;;;;5.18;44.55;100728.64;511863;1099;114951;-65
2021/03/06 11:40:58;;;;;;;7.00;4.50;;;;;;;5.55;43.90;100702.62;511928;1099;113845;-65
2021/03/06 11:51:02;;;;;;;6.93;4.53;;;;;;;5.04;42.58;100679.52;511557;1098;114116;-60
2021/03/06 12:01:06;;;;;;;9.50;3.60;;;;;;;5.08;43.73;100674.23;511855;1099;114983;-60
2021/03/06 12:11:13;;;;;;;6.80;3.80;;;;;;;5.36;42.15;100678.75;511221;1099;115073;-60
2021/03/06 12:21:17;;;;;;;3.43;2.30;;;;;;;5.25;41.60;100666.88;511342;1099;113944;-59
2021/03/06 12:31:25;;;;;;;4.60;2.20;;;;;;;5.26;41.95;100652.96;512413;1098;113930;-67
2021/03/06 12:41:29;;;;;;;2.73;2.20;;;;;;;5.29;38.96;100645.06;512093;1099;113796;-60
2021/03/06 12:51:34;;;;;;;3.50;2.00;;;;;;;4.94;38.63;100653.72;511749;1099;114379;-60
2021/03/06 13:01:39;;;;;;;4.57;2.43;;;;;;;4.30;39.38;100648.19;512007;1099;114923;-62
2021/03/06 13:11:44;;;;;;;9.17;2.77;;;;;;;4.36;39.50;100626.40;512069;1098;114863;-64
2021/03/06 13:21:48;;;;;;;2.77;1.50;;;;;;;4.42;40.12;100621.05;511913;1098;114879;-62
2021/03/06 13:31:52;;;;;;;3.60;2.40;;;;;;;4.28;39.81;100623.97;511790;1098;114513;-61
2021/03/06 13:41:56;;;;;;;4.07;2.67;;;;;;;4.17;40.75;100616.38;511122;1099;114465;-63
2021/03/06 13:52:00;;;;;;;4.57;2.80;;;;;;;3.97;41.11;100611.60;511573;1099;114373;-61
2021/03/06 14:02:05;;;;;;;4.43;2.80;;;;;;;4.15;41.77;100601.70;511638;1099;115008;-59
2021/03/06 14:12:11;;;;;;;6.03;3.03;;;;;;;4.33;42.05;100583.11;511872;1099;114848;-61
2021/03/06 14:22:16;;;;;;;3.43;2.20;;;;;;;4.58;40.21;100574.73;511130;1099;114325;-62
2021/03/06 14:32:20;;;;;;;5.27;3.43;;;;;;;4.40;40.50;100556.98;511127;1098;114770;-59
2021/03/06 14:42:24;;;;;;;4.63;2.10;;;;;;;4.20;41.19;100556.52;511318;1099;114495;-61
2021/03/06 14:52:32;;;;;;;4.97;2.87;;;;;;;4.06;41.62;100550.77;510607;1098;114374;-62
2021/03/06 15:02:37;;;;;;;6.77;2.87;;;;;;;3.76;42.17;100540.16;511383;1099;115533;-65
2021/03/06 15:12:41;;;;;;;11.67;4.33;;;;;;;3.52;42.58;100526.78;511253;1099;114923;-64
2021/03/06 15:22:45;;;;;;;9.37;3.80;;;;;;;3.26;43.45;100515.13;510761;1099;114828;-65
2021/03/06 15:32:49;;;;;;;8.93;3.73;;;;;;;3.47;44.08;100520.80;511318;1098;114887;-65
2021/03/06 15:42:54;;;;;;;5.37;3.10;;;;;;;3.26;44.05;100517.73;511630;1099;114123;-64
2021/03/06 15:53:00;;;;;;;4.37;3.17;;;;;;;3.18;44.62;100491.08;511612;1099;115486;-62
2021/03/06 16:03:05;;;;;;;9.27;4.00;;;;;;;2.73;45.03;100497.05;511515;1099;115544;-62
2021/03/06 16:13:09;;;;;;;8.43;3.27;;;;;;;2.23;46.02;100490.91;511675;1099;114027;-61
2021/03/06 16:23:16;;;;;;;7.10;3.77;;;;;;;1.78;47.06;100486.38;511369;1099;113978;-60
2021/03/06 16:33:26;;;;;;;9.83;4.53;;;;;;;1.38;47.86;100487.72;512022;1099;114321;-61
2021/03/06 16:43:35;;;;;;;11.80;4.57;;;;;;;1.11;48.53;100494.92;512943;1098;114132;-61
2021/03/06 16:53:40;;;;;;;8.00;4.73;;;;;;;0.80;49.39;100497.80;511462;1098;114427;-60
2021/03/06 17:03:44;;;;;;;14.55;6.30;;;;;;;0.58;50.13;100491.11;511014;1098;114052;-61
2021/03/06 17:13:49;;;;;;;10.50;4.60;;;;;;;0.16;50.79;100489.67;511756;1098;114418;-61
2021/03/06 17:23:56;;;;;;;12.77;4.67;;;;;;;-0.02;51.47;100483.78;511771;1099;114265;-63
2021/03/06 17:34:03;;;;;;;9.80;5.07;;;;;;;-0.24;52.38;100477.86;510920;1099;114887;-62
2021/03/06 17:44:10;;;;;;;13.62;6.85;;;;;;;-0.51;52.98;100459.06;513616;1099;114644;-68
2021/03/06 17:54:15;;;;;;;13.00;8.13;;;;;;;-0.71;53.58;100478.05;511930;1098;115415;-70
2021/03/06 18:04:19;;;;;;;19.63;10.80;;;;;;;-1.00;54.96;100470.40;511664;1098;114765;-59
2021/03/06 18:14:32;;;;;;;15.20;9.90;;;;;;;-1.23;54.89;100462.72;511453;1098;114959;-61
2021/03/06 18:24:36;;;;;;;17.90;9.60;;;;;;;-1.43;55.95;100442.98;511546;1099;114327;-61
2021/03/06 18:34:41;;;;;;;12.15;7.60;;;;;;;-1.48;56.34;100437.83;511656;1098;114347;-60
2021/03/06 18:44:54;;;;;;;14.43;8.53;;;;;;;-1.47;56.70;100416.36;511343;1099;115087;-62
2021/03/06 18:54:58;;;;;;;31.83;14.73;;;;;;;-1.50;57.35;100426.67;511449;1099;114407;-64
2021/03/06 19:05:05;;;;;;;35.97;16.60;;;;;;;-1.55;57.07;100420.69;511206;1099;114416;-63
2021/03/06 19:15:15;;;;;;;20.07;9.50;;;;;;;-1.68;57.97;100427.55;511471;1099;114890;-57
2021/03/06 19:25:21;;;;;;;18.20;10.10;;;;;;;-1.69;58.09;100426.67;511754;1099;114436;-61
2021/03/06 19:35:25;;;;;;;25.10;10.73;;;;;;;-1.80;58.74;100428.39;510390;1099;114545;-62
2021/03/06 19:45:38;;;;;;;12.25;7.65;;;;;;;-1.79;58.35;100424.98;511415;1099;114432;-62
2021/03/06 19:55:42;;;;;;;13.00;8.10;;;;;;;-1.79;58.89;100412.11;510977;1099;115067;-62
2021/03/06 20:05:46;;;;;;;14.23;7.67;;;;;;;-1.75;59.02;100418.97;528615;1098;115078;-61
2021/03/06 20:16:00;;;;;;;25.40;11.17;;;;;;;-1.56;59.51;100430.11;515587;1099;114324;-61
2021/03/06 20:26:07;;;;;;;12.03;7.55;;;;;;;-1.09;59.26;100431.78;511104;1099;115487;-60
2021/03/06 20:36:11;;;;;;;13.80;8.10;;;;;;;-0.74;58.68;100423.06;511502;1099;114878;-60
2021/03/06 20:46:20;;;;;;;14.13;7.97;;;;;;;-0.49;57.88;100405.73;511702;1099;114344;-61
2021/03/06 20:56:25;;;;;;;21.53;10.73;;;;;;;-0.33;57.77;100392.76;511717;1098;115146;-60
2021/03/06 21:06:29;;;;;;;15.50;8.50;;;;;;;-0.19;58.65;100379.73;511121;1099;115343;-60
2021/03/06 21:16:43;;;;;;;15.55;7.20;;;;;;;-0.01;58.87;100360.67;511218;1098;114490;-60
2021/03/06 21:26:53;;;;;;;9.60;5.50;;;;;;;0.09;58.06;100349.40;511695;1099;115162;-61
2021/03/06 21:36:57;;;;;;;13.80;7.17;;;;;;;0.13;58.06;100332.16;511125;1099;115456;-60
2021/03/06 21:47:06;;;;;;;14.87;7.87;;;;;;;0.17;58.78;100335.57;511747;1099;114478;-60
2021/03/06 21:57:10;;;;;;;16.07;7.67;;;;;;;0.21;58.45;100326.91;511442;1099;115055;-59
2021/03/06 22:07:16;;;;;;;12.23;6.63;;;;;;;0.23;59.08;100336.37;511122;1098;114720;-58
2021/03/06 22:17:30;;;;;;;14.37;7.83;;;;;;;0.24;58.76;100327.74;511368;1099;114340;-60
2021/03/06 22:27:35;;;;;;;18.43;9.20;;;;;;;0.25;60.52;100303.62;511564;1098;114104;-59
2021/03/06 22:37:39;;;;;;;14.43;8.03;;;;;;;0.24;60.21;100291.58;511675;1099;114511;-59
2021/03/06 22:47:50;;;;;;;11.57;6.17;;;;;;;0.25;60.46;100272.62;511519;1099;116306;-60
2021/03/06 22:57:54;;;;;;;11.57;6.80;;;;;;;0.24;60.55;100260.58;511992;1098;115080;-58
2021/03/06 23:07:59;;;;;;;15.80;8.13;;;;;;;0.20;61.10;100255.46;511539;1099;115036;-62
2021/03/06 23:18:18;;;;;;;11.57;6.50;;;;;;;0.13;61.72;100242.62;511271;1098;114572;-61
2021/03/06 23:28:22;;;;;;;12.47;7.03;;;;;;;0.10;62.51;100232.30;511608;1099;115577;-62
2021/03/06 23:38:26;;;;;;;7.93;6.30;;;;;;;0.07;63.03;100228.92;511698;1099;115001;-61
2021/03/06 23:48:33;;;;;;;17.30;8.97;;;;;;;0.08;62.63;100213.40;511786;1099;114019;-62
2021/03/06 23:58:38;;;;;;;9.90;6.33;;;;;;;0.10;62.80;100210.81;511762;1099;115927;-62
